createdAt,value
2022-08-09T00:02:28.969Z,94.99
2022-08-09T00:05:03.349Z,95.10
2022-08-09T00:07:44.440Z,94.36
2022-08-09T00:10:18.073Z,94.05
2022-08-09T00:12:52.330Z,93.69
2022-08-09T00:15:26.435Z,93.69
2022-08-09T00:18:10.595Z,93.61
2022-08-09T00:20:42.411Z,93.40
2022-08-09T00:23:57.320Z,93.28
2022-08-09T00:26:06.953Z,93.71
2022-08-09T00:28:34.462Z,93.60
2022-08-09T00:31:09.194Z,93.63
2022-08-09T00:33:53.282Z,93.31
2022-08-09T00:36:21.077Z,93.20
2022-08-09T00:38:50.701Z,93.42
2022-08-09T00:44:11.019Z,93.68
2022-08-09T00:44:14.425Z,93.88
2022-08-09T00:46:56.327Z,93.42
2022-08-09T00:49:24.669Z,93.15
2022-08-09T00:51:56.433Z,93.50
2022-08-09T00:54:31.280Z,93.78
2022-08-09T00:57:01.894Z,93.51
2022-08-09T00:59:41.389Z,93.37
2022-08-09T01:02:20.207Z,93.22
2022-08-09T01:05:14.242Z,92.97
2022-08-09T01:08:01.015Z,93.21
2022-08-09T01:11:08.650Z,92.79
2022-08-09T01:14:01.856Z,92.66
2022-08-09T01:16:35.378Z,92.88
2022-08-09T01:19:17.008Z,93.49
2022-08-09T01:22:16.673Z,93.68
2022-08-09T01:25:19.015Z,93.81
2022-08-09T01:27:52.746Z,93.90
2022-08-09T01:30:28.492Z,93.94
2022-08-09T01:33:03.314Z,93.67
2022-08-09T01:35:38.319Z,93.90
2022-08-09T01:38:15.005Z,94.01
2022-08-09T01:40:52.422Z,93.74
2022-08-09T01:43:29.897Z,93.68
2022-08-09T01:45:58.306Z,93.41
2022-08-09T01:48:29.629Z,93.27
2022-08-09T01:50:58.658Z,93.20
2022-08-09T01:53:29.296Z,93.69
2022-08-09T01:56:11.001Z,93.48
2022-08-09T01:58:38.808Z,93.41
2022-08-09T02:01:06.471Z,93.25
2022-08-09T02:03:36.505Z,92.94
2022-08-09T02:06:07.020Z,93.17
2022-08-09T02:08:57.002Z,92.92
2022-08-09T02:11:41.969Z,92.89
2022-08-09T02:14:15.968Z,92.73
2022-08-09T02:17:15.434Z,92.76
2022-08-09T02:19:43.564Z,93.08
2022-08-09T02:22:36.134Z,93.00
2022-08-09T02:25:10.054Z,92.80
2022-08-09T02:28:00.332Z,92.76
2022-08-09T02:30:36.889Z,92.77
2022-08-09T02:33:08.034Z,92.90
2022-08-09T02:36:01.029Z,93.17
2022-08-09T02:38:35.665Z,92.81
2022-08-09T02:41:08.558Z,92.56
2022-08-09T02:43:53.553Z,92.52
2022-08-09T02:46:24.685Z,92.03
2022-08-09T02:48:53.920Z,92.00
2022-08-09T02:51:26.651Z,91.90
2022-08-09T02:54:00.405Z,92.13
2022-08-09T02:56:30.466Z,91.98
2022-08-09T02:58:57.356Z,91.78
2022-08-09T03:01:29.638Z,91.65
2022-08-09T03:04:19.358Z,92.05
2022-08-09T03:06:49.006Z,91.99
2022-08-09T03:09:17.653Z,92.18
2022-08-09T03:12:05.471Z,92.22
2022-08-09T03:14:32.991Z,92.12
2022-08-09T03:17:01.542Z,92.06
2022-08-09T03:19:59.064Z,91.80
2022-08-09T03:22:25.699Z,91.22
2022-08-09T03:25:06.578Z,90.99
2022-08-09T03:27:51.899Z,90.99
2022-08-09T03:30:29.706Z,90.93
2022-08-09T03:33:17.992Z,90.69
2022-08-09T03:36:13.142Z,90.84
2022-08-09T03:38:35.482Z,91.33
2022-08-09T03:41:03.999Z,91.13
2022-08-09T03:43:31.607Z,91.47
2022-08-09T03:46:04.342Z,91.74
2022-08-09T03:48:51.820Z,91.51
2022-08-09T03:51:55.980Z,91.51
2022-08-09T03:54:11.086Z,91.91
2022-08-09T03:56:41.336Z,91.59
2022-08-09T03:59:17.034Z,91.59
2022-08-09T04:01:48.873Z,91.19
2022-08-09T04:04:16.559Z,91.56
2022-08-09T04:06:44.109Z,91.64
2022-08-09T04:09:47.743Z,91.85
2022-08-09T04:12:12.199Z,91.99
2022-08-09T04:15:01.780Z,91.99
2022-08-09T04:17:30.094Z,92.07
2022-08-09T04:19:57.934Z,92.24
2022-08-09T04:22:29.606Z,92.83
2022-08-09T04:24:58.488Z,93.16
2022-08-09T04:27:25.679Z,93.03
2022-08-09T04:29:55.674Z,92.69
2022-08-09T04:32:22.419Z,92.69
2022-08-09T04:35:01.360Z,92.62
2022-08-09T04:37:45.036Z,92.36
2022-08-09T04:40:29.125Z,92.51
2022-08-09T04:42:59.906Z,92.37
2022-08-09T04:45:30.499Z,92.44
2022-08-09T04:48:03.118Z,92.46
2022-08-09T04:50:31.682Z,93.33
2022-08-09T04:53:00.696Z,93.28
2022-08-09T04:55:27.838Z,93.39
2022-08-09T04:58:09.644Z,92.83
2022-08-09T05:00:36.579Z,92.35
2022-08-09T05:03:30.020Z,91.23
2022-08-09T05:06:04.466Z,91.28
2022-08-09T05:08:34.959Z,91.76
2022-08-09T05:11:02.783Z,92.04
2022-08-09T05:13:33.095Z,91.47
2022-08-09T05:16:00.731Z,90.81
2022-08-09T05:18:37.771Z,89.71
2022-08-09T05:21:22.868Z,88.94
2022-08-09T05:24:00.125Z,87.64
2022-08-09T05:26:37.413Z,87.35
2022-08-09T05:29:17.074Z,86.08
2022-08-09T05:31:46.403Z,85.23
2022-08-09T05:34:16.459Z,85.44
2022-08-09T05:36:44.275Z,85.68
2022-08-09T05:39:14.353Z,85.35
2022-08-09T05:41:55.263Z,85.33
2022-08-09T05:44:22.065Z,85.50
2022-08-09T05:46:55.645Z,85.47
2022-08-09T05:49:33.842Z,85.32
2022-08-09T05:52:10.087Z,85.06
2022-08-09T05:54:37.042Z,83.57
2022-08-09T05:57:07.141Z,83.67
2022-08-09T05:59:39.524Z,83.87
2022-08-09T06:02:10.027Z,84.11
2022-08-09T06:04:36.862Z,83.85
2022-08-09T06:07:11.546Z,84.25
2022-08-09T06:09:54.625Z,84.08
2022-08-09T06:12:28.641Z,83.86
2022-08-09T06:14:55.295Z,84.21
2022-08-09T06:17:27.861Z,84.72
2022-08-09T06:20:07.977Z,84.84
2022-08-09T06:22:35.319Z,84.41
2022-08-09T06:25:02.138Z,83.71
2022-08-09T06:27:42.879Z,82.75
2022-08-09T06:30:10.742Z,82.11
2022-08-09T06:32:53.364Z,82.15
2022-08-09T06:35:56.468Z,81.85
2022-08-09T06:38:16.329Z,81.93
2022-08-09T06:40:43.368Z,81.64
2022-08-09T06:43:10.572Z,81.93
2022-08-09T06:46:05.537Z,82.33
2022-08-09T06:48:26.157Z,82.35
2022-08-09T06:50:59.037Z,82.03
2022-08-09T06:53:26.571Z,81.96
2022-08-09T06:55:53.409Z,81.98
2022-08-09T06:58:40.554Z,81.63
2022-08-09T07:01:08.040Z,81.67
2022-08-09T07:03:39.777Z,82.19
2022-08-09T07:06:19.797Z,82.40
2022-08-09T07:08:46.710Z,81.32
2022-08-09T07:11:23.339Z,80.49
2022-08-09T07:14:05.659Z,80.07
2022-08-09T07:16:42.347Z,79.03
2022-08-09T07:19:23.010Z,77.89
2022-08-09T07:21:57.148Z,78.14
2022-08-09T07:24:32.484Z,78.89
2022-08-09T07:27:23.933Z,78.91
2022-08-09T07:29:57.213Z,78.69
2022-08-09T07:32:32.932Z,79.48
2022-08-09T07:35:02.756Z,78.18
2022-08-09T07:37:44.139Z,78.12
2022-08-09T07:40:19.128Z,78.71
2022-08-09T07:43:16.793Z,77.49
2022-08-09T07:45:43.732Z,78.11
2022-08-09T07:48:28.393Z,76.92
2022-08-09T07:51:09.846Z,77.53
2022-08-09T07:54:05.367Z,77.90
2022-08-09T07:56:34.267Z,77.93
2022-08-09T07:59:01.218Z,77.11
2022-08-09T08:01:33.050Z,76.66
2022-08-09T08:04:01.744Z,76.27
2022-08-09T08:06:32.210Z,75.10
2022-08-09T08:09:04.508Z,75.35
2022-08-09T08:12:11.352Z,76.43
2022-08-09T08:14:18.467Z,76.26
2022-08-09T08:16:57.754Z,76.31
2022-08-09T08:19:33.847Z,75.82
2022-08-09T08:22:01.704Z,74.82
2022-08-09T08:24:35.156Z,75.75
2022-08-09T08:27:16.531Z,75.83
2022-08-09T08:29:45.242Z,75.96
2022-08-09T08:32:24.409Z,75.99
2022-08-09T08:34:58.868Z,75.68
2022-08-09T08:37:41.548Z,75.58
2022-08-09T08:40:14.768Z,74.93
2022-08-09T08:42:47.349Z,75.19
2022-08-09T08:45:16.683Z,72.63
2022-08-09T08:47:45.229Z,72.66
2022-08-09T08:50:15.650Z,72.78
2022-08-09T08:52:57.708Z,74.00
2022-08-09T08:55:26.852Z,74.54
2022-08-09T08:57:57.126Z,74.76
2022-08-09T09:00:27.558Z,74.70
2022-08-09T09:03:08.812Z,73.21
2022-08-09T09:05:59.907Z,73.86
2022-08-09T09:08:37.806Z,73.42
2022-08-09T09:11:08.579Z,73.22
2022-08-09T09:13:55.848Z,72.23
2022-08-09T09:16:34.508Z,72.03
2022-08-09T09:22:03.838Z,71.58
2022-08-09T09:24:34.901Z,72.14
2022-08-09T09:27:03.215Z,69.50
2022-08-09T09:29:46.025Z,69.81
2022-08-09T09:32:34.686Z,69.81
2022-08-09T09:35:08.961Z,68.30
2022-08-09T09:37:40.695Z,68.35
2022-08-09T09:40:08.657Z,67.72
2022-08-09T09:42:36.315Z,67.84
2022-08-09T09:45:08.301Z,66.67
2022-08-09T09:47:42.120Z,66.02
2022-08-09T09:50:17.299Z,64.30
2022-08-09T09:52:56.108Z,64.15
2022-08-09T09:55:31.334Z,64.74
2022-08-09T09:58:15.715Z,64.99
2022-08-09T10:00:54.171Z,62.92
2022-08-09T10:03:57.565Z,63.41
2022-08-09T10:06:51.970Z,63.84
2022-08-09T10:09:23.549Z,63.79
2022-08-09T10:12:14.455Z,64.08
2022-08-09T10:14:51.481Z,62.49
2022-08-09T10:17:50.197Z,62.81
2022-08-09T10:20:31.804Z,62.43
2022-08-09T10:23:17.223Z,62.66
2022-08-09T10:26:06.379Z,63.44
2022-08-09T10:28:34.642Z,62.17
2022-08-09T10:34:10.736Z,61.71
2022-08-09T10:36:36.794Z,60.50
2022-08-09T10:39:05.977Z,61.17
2022-08-09T10:41:42.909Z,60.62
2022-08-09T10:44:10.142Z,58.54
2022-08-09T10:47:00.838Z,59.59
2022-08-09T10:49:50.346Z,59.08
2022-08-09T10:52:29.534Z,58.96
2022-08-09T10:55:02.592Z,59.75
2022-08-09T10:57:37.673Z,59.05
2022-08-09T11:01:11.097Z,60.22
2022-08-09T11:03:50.329Z,59.75
2022-08-09T11:06:15.778Z,58.09
2022-08-09T11:08:47.777Z,58.69
2022-08-09T11:11:19.014Z,58.28
2022-08-09T11:13:50.085Z,57.90
2022-08-09T11:16:36.277Z,56.19
2022-08-09T11:19:10.151Z,57.57
2022-08-09T11:21:57.166Z,56.33
2022-08-09T11:24:57.894Z,55.14
2022-08-09T11:28:03.535Z,55.83
2022-08-09T11:30:33.771Z,57.50
2022-08-09T11:33:19.204Z,56.46
2022-08-09T11:35:57.226Z,57.08
2022-08-09T11:38:34.063Z,57.12
2022-08-09T11:41:18.604Z,56.92
2022-08-09T11:43:52.788Z,56.08
2022-08-09T11:46:32.843Z,56.26
2022-08-09T11:49:05.369Z,55.38
2022-08-09T11:53:00.492Z,54.96
2022-08-09T11:55:37.471Z,54.62
2022-08-09T11:58:14.408Z,55.01
2022-08-09T12:00:52.852Z,53.03
2022-08-09T12:03:55.063Z,54.69
2022-08-09T12:06:13.270Z,56.12
2022-08-09T12:08:47.277Z,54.23
2022-08-09T12:11:17.180Z,54.15
2022-08-09T12:14:07.803Z,53.21
2022-08-09T12:16:42.877Z,53.81
2022-08-09T12:19:13.100Z,52.95
2022-08-09T12:21:48.568Z,53.85
2022-08-09T12:24:26.281Z,53.78
2022-08-09T12:29:14.708Z,53.22
2022-08-09T12:30:01.427Z,53.85
2022-08-09T12:32:40.788Z,54.55
2022-08-09T12:35:10.789Z,53.76
2022-08-09T12:37:50.213Z,54.28
2022-08-09T12:40:18.960Z,54.61
2022-08-09T12:42:50.329Z,54.92
2022-08-09T12:45:33.736Z,56.29
2022-08-09T12:48:03.140Z,56.57
2022-08-09T12:50:29.935Z,56.48
2022-08-09T12:53:17.498Z,54.56
2022-08-09T12:56:14.985Z,54.47
2022-08-09T12:58:32.685Z,54.77
2022-08-09T13:01:05.059Z,54.15
2022-08-09T13:03:56.896Z,54.42
2022-08-09T13:06:24.221Z,54.34
2022-08-09T13:09:06.074Z,53.93
2022-08-09T13:11:44.111Z,54.90
2022-08-09T13:14:43.665Z,54.47
2022-08-09T13:17:01.272Z,56.15
2022-08-09T13:20:11.303Z,55.36
2022-08-09T13:22:38.124Z,55.35
2022-08-09T13:25:11.878Z,54.31
2022-08-09T13:27:55.416Z,53.48
2022-08-09T13:30:51.390Z,53.64
2022-08-09T13:33:16.905Z,52.82
2022-08-09T13:36:39.107Z,53.71
2022-08-09T13:38:57.468Z,53.22
2022-08-09T13:41:58.937Z,53.03
2022-08-09T13:44:09.395Z,53.35
2022-08-09T13:47:16.643Z,53.48
2022-08-09T13:49:33.963Z,53.57
2022-08-09T13:52:09.205Z,54.52
2022-08-09T13:54:36.500Z,55.14
2022-08-09T13:57:35.104Z,54.60
2022-08-09T13:59:58.201Z,55.02
2022-08-09T14:02:26.134Z,54.76
2022-08-09T14:04:59.496Z,54.12
2022-08-09T14:07:40.888Z,54.47
2022-08-09T14:10:17.172Z,54.31
2022-08-09T14:12:44.448Z,54.21
2022-08-09T14:16:06.968Z,55.31
2022-08-09T14:18:18.584Z,55.39
2022-08-09T14:20:46.772Z,55.24
2022-08-09T14:23:20.051Z,54.95
2022-08-09T14:25:51.382Z,55.55
2022-08-09T14:28:18.395Z,55.54
2022-08-09T14:30:47.539Z,55.44
2022-08-09T14:33:21.010Z,55.75
2022-08-09T14:35:52.653Z,56.64
2022-08-09T14:38:20.001Z,56.26
2022-08-09T14:41:04.558Z,55.64
2022-08-09T14:43:46.972Z,55.99
2022-08-09T14:46:58.976Z,56.10
2022-08-09T14:49:02.750Z,56.32
2022-08-09T14:51:30.313Z,56.15
2022-08-09T14:54:09.528Z,55.41
2022-08-09T14:56:36.170Z,55.91
2022-08-09T14:59:23.499Z,56.01
2022-08-09T15:01:50.528Z,54.68
2022-08-09T15:04:17.121Z,55.15
2022-08-09T15:06:49.696Z,55.25
2022-08-09T15:09:16.853Z,55.39
2022-08-09T15:12:04.487Z,55.42
2022-08-09T15:14:33.877Z,54.86
2022-08-09T15:17:04.819Z,54.75
2022-08-09T15:19:36.073Z,55.74
2022-08-09T15:22:03.095Z,55.03
2022-08-09T15:24:29.821Z,55.30
2022-08-09T15:26:56.651Z,56.38
2022-08-09T15:30:55.983Z,56.60
2022-08-09T15:32:29.389Z,57.72
2022-08-09T15:34:59.917Z,58.21
2022-08-09T15:37:57.026Z,57.65
2022-08-09T15:40:25.351Z,57.48
2022-08-09T15:42:58.554Z,56.98
2022-08-09T15:45:29.381Z,57.02
2022-08-09T15:48:05.147Z,57.98
2022-08-09T15:50:39.341Z,57.71
2022-08-09T15:53:18.702Z,56.42
2022-08-09T15:56:20.960Z,56.97
2022-08-09T15:58:46.471Z,56.47
2022-08-09T16:01:13.306Z,57.16
2022-08-09T16:03:41.654Z,56.72
2022-08-09T16:06:32.348Z,57.00
2022-08-09T16:08:59.172Z,56.26
2022-08-09T16:11:30.866Z,56.71
2022-08-09T16:14:03.694Z,57.05
2022-08-09T16:16:36.846Z,57.69
2022-08-09T16:19:08.745Z,58.07
2022-08-09T16:21:40.208Z,58.16
2022-08-09T16:24:19.955Z,57.83
2022-08-09T16:26:56.755Z,57.96
2022-08-09T16:29:36.708Z,57.35
2022-08-09T16:32:17.780Z,56.68
2022-08-09T16:34:56.626Z,56.44
2022-08-09T16:37:50.639Z,56.03
2022-08-09T16:40:13.559Z,56.54
2022-08-09T16:42:44.858Z,56.22
2022-08-09T16:45:12.532Z,56.41
2022-08-09T16:48:39.218Z,56.07
2022-08-09T16:50:33.966Z,56.09
2022-08-09T16:53:02.329Z,56.40
2022-08-09T16:55:44.133Z,56.52
2022-08-09T16:58:16.955Z,56.42
2022-08-09T17:00:46.632Z,57.06
2022-08-09T17:03:22.662Z,57.30
2022-08-09T17:06:08.307Z,57.14
2022-08-09T17:08:59.046Z,57.76
2022-08-09T17:11:41.302Z,58.90
2022-08-09T17:14:25.326Z,59.82
2022-08-09T17:16:59.758Z,60.79
2022-08-09T17:19:28.124Z,61.88
2022-08-09T17:22:14.489Z,62.28
2022-08-09T17:24:47.956Z,63.04
2022-08-09T17:27:21.780Z,63.55
2022-08-09T17:29:48.468Z,63.87
2022-08-09T17:32:20.064Z,64.11
2022-08-09T17:35:04.379Z,64.31
2022-08-09T17:38:10.213Z,64.55
2022-08-09T17:40:21.786Z,65.03
2022-08-09T17:42:59.189Z,65.23
2022-08-09T17:46:01.953Z,65.14
2022-08-09T17:48:17.401Z,65.41
2022-08-09T17:50:48.596Z,65.87
2022-08-09T17:53:23.321Z,66.05
2022-08-09T17:55:54.177Z,66.08
2022-08-09T17:58:21.939Z,66.26
2022-08-09T18:00:55.022Z,66.38
2022-08-09T18:03:24.548Z,66.66
2022-08-09T18:05:53.208Z,67.02
2022-08-09T18:08:22.184Z,66.90
2022-08-09T18:11:00.989Z,67.08
2022-08-09T18:13:40.020Z,67.71
2022-08-09T18:16:30.264Z,67.52
2022-08-09T18:18:59.301Z,68.37
2022-08-09T18:21:31.798Z,68.55
2022-08-09T18:24:12.368Z,68.79
2022-08-09T18:26:46.375Z,68.95
2022-08-09T18:30:38.744Z,69.15
2022-08-09T18:32:03.895Z,69.37
2022-08-09T18:34:35.205Z,69.67
2022-08-09T18:37:10.361Z,69.77
2022-08-09T18:39:57.884Z,70.56
2022-08-09T18:42:29.344Z,70.41
2022-08-09T18:44:56.340Z,70.73
2022-08-09T18:47:24.316Z,70.56
2022-08-09T18:49:54.540Z,71.09
2022-08-09T18:52:34.724Z,71.11
2022-08-09T18:55:02.766Z,71.28
2022-08-09T18:57:42.600Z,71.52
2022-08-09T19:00:11.661Z,71.76
2022-08-09T19:02:43.521Z,71.83
2022-08-09T19:05:19.637Z,71.58
2022-08-09T19:08:04.319Z,71.90
2022-08-09T19:10:37.871Z,71.66
2022-08-09T19:13:19.279Z,71.88
2022-08-09T19:15:51.296Z,72.54
2022-08-09T19:18:33.268Z,73.10
2022-08-09T19:21:09.929Z,72.97
2022-08-09T19:24:33.205Z,73.04
2022-08-09T19:26:31.141Z,72.98
2022-08-09T19:29:03.061Z,73.12
2022-08-09T19:31:45.039Z,73.30
2022-08-09T19:34:22.319Z,74.05
2022-08-09T19:36:53.076Z,73.69
2022-08-09T19:39:29.127Z,74.00
2022-08-09T19:42:08.419Z,74.31
2022-08-09T19:44:38.156Z,74.21
2022-08-09T19:47:07.824Z,74.49
2022-08-09T19:50:09.569Z,74.56
2022-08-09T19:52:26.204Z,74.23
2022-08-09T19:54:52.806Z,75.09
2022-08-09T19:57:19.550Z,75.17
2022-08-09T19:59:59.125Z,74.96
2022-08-09T20:04:12.611Z,75.26
2022-08-09T20:05:20.550Z,75.45
2022-08-09T20:08:00.255Z,75.67
2022-08-09T20:10:34.428Z,75.88
2022-08-09T20:13:04.970Z,75.74
2022-08-09T20:16:34.713Z,75.89
2022-08-09T20:18:19.725Z,76.05
2022-08-09T20:20:51.086Z,76.00
2022-08-09T20:23:19.583Z,75.98
2022-08-09T20:25:52.253Z,76.18
2022-08-09T20:28:24.505Z,75.97
2022-08-09T20:30:54.878Z,75.96
2022-08-09T20:33:21.859Z,76.56
2022-08-09T20:35:51.612Z,77.46
2022-08-09T20:38:27.536Z,77.57
2022-08-09T20:40:56.706Z,78.49
2022-08-09T20:43:25.354Z,78.03
2022-08-09T20:45:57.546Z,78.30
2022-08-09T20:48:31.240Z,78.27
2022-08-09T20:50:58.914Z,78.23
2022-08-09T20:53:36.371Z,78.31
2022-08-09T20:56:08.763Z,78.51
2022-08-09T20:58:36.070Z,77.98
2022-08-09T21:01:33.161Z,78.03
2022-08-09T21:05:48.460Z,78.00
2022-08-09T21:06:41.515Z,78.24
2022-08-09T21:09:13.839Z,78.17
2022-08-09T21:14:30.917Z,78.22
2022-08-09T21:17:00.049Z,78.35
2022-08-09T21:20:18.051Z,78.84
2022-08-09T21:22:35.729Z,79.15
2022-08-09T21:25:18.562Z,79.21
2022-08-09T21:27:52.329Z,78.97
2022-08-09T21:30:20.059Z,78.95
2022-08-09T21:32:50.450Z,78.77
2022-08-09T21:35:18.037Z,79.14
2022-08-09T21:37:59.880Z,79.22
2022-08-09T21:40:30.616Z,79.20
2022-08-09T21:43:04.216Z,79.28
2022-08-09T21:45:32.897Z,79.38
2022-08-09T21:48:06.991Z,79.25
2022-08-09T21:50:38.437Z,79.34
2022-08-09T21:53:15.571Z,79.66
2022-08-09T21:55:46.873Z,79.76
2022-08-09T21:58:13.548Z,79.72
2022-08-09T22:00:40.757Z,79.78
2022-08-09T22:03:19.370Z,79.76
2022-08-09T22:05:52.316Z,80.34
2022-08-09T22:08:19.683Z,80.24
2022-08-09T22:11:00.839Z,80.18
2022-08-09T22:13:38.573Z,80.24
2022-08-09T22:16:10.681Z,80.36
2022-08-09T22:18:52.204Z,80.89
2022-08-09T22:21:27.439Z,81.02
2022-08-09T22:24:16.933Z,80.80
2022-08-09T22:26:47.804Z,80.60
2022-08-09T22:29:18.513Z,80.51
2022-08-09T22:31:57.049Z,80.72
2022-08-09T22:34:26.448Z,80.84
2022-08-09T22:36:57.794Z,80.78
2022-08-09T22:39:57.299Z,80.89
2022-08-09T22:42:20.815Z,81.06
2022-08-09T22:44:48.974Z,81.18
2022-08-09T22:48:33.916Z,80.94
2022-08-09T22:50:13.524Z,81.55
2022-08-09T22:52:40.072Z,81.43
2022-08-09T22:55:08.372Z,81.31
2022-08-09T22:58:00.120Z,81.45
2022-08-09T23:00:29.555Z,81.73
2022-08-09T23:02:56.545Z,81.84
2022-08-09T23:05:25.150Z,81.69
2022-08-09T23:08:29.125Z,81.61
2022-08-09T23:10:56.426Z,81.60
2022-08-09T23:13:22.995Z,82.05
2022-08-09T23:16:02.980Z,81.99
2022-08-09T23:18:30.030Z,82.46
2022-08-09T23:20:56.634Z,82.26
2022-08-09T23:23:23.217Z,82.40
2022-08-09T23:25:49.747Z,82.09
2022-08-09T23:28:16.368Z,82.32
2022-08-09T23:30:50.900Z,82.07
2022-08-09T23:33:19.450Z,82.10
2022-08-09T23:36:06.618Z,82.27
2022-08-09T23:38:32.502Z,82.21
2022-08-09T23:40:59.016Z,82.07
2022-08-09T23:43:25.548Z,82.55
2022-08-09T23:45:52.083Z,82.50
2022-08-09T23:48:19.615Z,82.71
2022-08-09T23:50:46.231Z,82.64
2022-08-09T23:53:12.943Z,82.51
2022-08-09T23:55:46.198Z,82.50
2022-08-09T23:58:25.997Z,82.60
